Cardiff, United Kingdom
Current Conditions -  °F | °C
As of 6:20 AM on Saturday 29 Nov 2014 (Local Time) from EGFF Reporting Station
Scattered Clouds Scattered Clouds  
Wind Chill: 50°   Ceiling: Unl
Heat Index: 50°   Visibility: 4mi
Dew Point: 48°   Wind: 12mph
Humidity: 94%   Direction: 70°ENE
Pressure: 29.74"   Gusts: NA
Location:  51.48°N, 3.18°W
Report Text: EGFF 290620Z AUTO 07010KT 6000 SCT011 10/09 Q1007
Loading
Personal Weather Stations






























Interactive Weather Map New forecast layout! Learn more

10-Day Weather Forecast

Advertisements
Track Severe Weather on mobile